Terminal Aerodrome Forecast
Issued by NWS

Home | Current Version | Previous Version | Text Only | Print | Product List | Glossary On
Versions: 1 2 3 4 5 6 7 8 9 10 11 12 13 14 15 16 17 18 19
000
FTUS43 KDTX 261327 AAA
TAFMBS
TAF AMD
KMBS 261327Z 2613/2712 20008KT 6SM BR BKN015
     FM261600 22014KT P6SM SCT045 BKN200
     FM270000 20009KT P6SM -SHRA OVC045 PROB30 2700/2703 3SM TSRA
      OVC030CB
     FM270800 22010KT P6SM BKN015=

USA.gov is the U.S. government's official web portal to all federal, state and local government web resources and services.